Lily Lake, Illinois
Current Conditions -  °F | °C
As of 12:52 AM on Thursday 23 Oct 2014 (Local Time) from KDPA Reporting Station
Clear Clear  
Wind Chill: 35°   Ceiling: Unl
Heat Index: 35°   Visibility: 9mi
Dew Point: 33°   Wind: 0mph
Humidity: 92%   Direction: NA
Pressure: 30.24"   Gusts: NA
Location:  41.9502°N, 88.389°W
Report Text: KDPA 230552Z 00000KT 9SM CLR 02/01 A3024 RMK AO2 SLP245 T00170006 10089 20017 401560011 58008
Loading
Personal Weather Stations






























Interactive Weather Map
Tropical Storm Tracking
New forecast layout! Learn more

10-Day Weather Forecast

Advertisements
Track Severe Weather on mobile